Time;durP1;ratioP1;P1;durP2;ratioP2;P2;SDS_P1;SDS_P2;PMS_P1;PMS_P2;Temp;Humidity;BMP_temperature;BMP_pressure;BME280_temperature;BME280_humidity;BME280_pressure;Samples;Min_cycle;Max_cycle;Signal;HPM_P1;HPM_P2
2021/05/26 00:00:11;;;;;;;5.43;0.32;;;9.20;92.50;;;;;;5077261;28;20024;-66
2021/05/26 00:02:37;;;;;;;1.73;0.40;;;9.20;92.60;;;;;;5075043;28;20084;-67
2021/05/26 00:05:04;;;;;;;2.45;0.60;;;9.20;92.70;;;;;;5072287;28;20424;-66
2021/05/26 00:07:29;;;;;;;2.67;0.63;;;9.20;92.80;;;;;;5072066;28;20092;-66
2021/05/26 00:09:55;;;;;;;3.30;0.50;;;9.20;92.90;;;;;;5072639;28;20045;-66
2021/05/26 00:12:21;;;;;;;4.78;0.60;;;9.10;93.00;;;;;;5056164;28;20120;-66
2021/05/26 00:14:46;;;;;;;1.45;0.50;;;9.10;93.00;;;;;;5072557;28;20098;-66
2021/05/26 00:17:12;;;;;;;1.63;0.35;;;9.10;93.10;;;;;;5074652;28;20044;-66
2021/05/26 00:19:39;;;;;;;1.42;0.40;;;9.00;93.20;;;;;;5072423;28;20032;-66
2021/05/26 00:22:05;;;;;;;3.03;0.63;;;9.00;93.40;;;;;;5073081;28;20051;-66
2021/05/26 00:24:30;;;;;;;1.15;0.55;;;9.00;93.50;;;;;;5058931;28;20032;-66
2021/05/26 00:26:56;;;;;;;4.68;0.75;;;9.00;93.60;;;;;;5073778;28;20031;-66
2021/05/26 00:29:21;;;;;;;4.30;0.80;;;9.00;93.70;;;;;;5073556;28;20392;-66
2021/05/26 00:31:47;;;;;;;3.72;0.60;;;8.90;93.80;;;;;;5080756;28;20486;-66
2021/05/26 00:34:12;;;;;;;3.17;0.70;;;8.90;93.90;;;;;;5079152;28;20347;-66
2021/05/26 00:36:38;;;;;;;3.05;0.50;;;8.90;94.00;;;;;;5076644;28;20042;-66
2021/05/26 00:39:05;;;;;;;2.53;0.60;;;8.80;94.10;;;;;;5076782;28;20032;-66
2021/05/26 00:41:31;;;;;;;7.97;1.13;;;8.80;94.30;;;;;;5077865;28;20055;-66
2021/05/26 00:43:57;;;;;;;2.88;0.73;;;8.80;94.30;;;;;;5075173;28;20104;-66
2021/05/26 00:46:22;;;;;;;3.17;0.68;;;8.80;94.40;;;;;;5074752;28;20070;-67
2021/05/26 00:48:49;;;;;;;2.95;0.90;;;8.80;94.50;;;;;;5078464;28;20035;-66
2021/05/26 00:51:14;;;;;;;4.00;1.10;;;8.80;94.60;;;;;;5075224;28;20524;-66
2021/05/26 00:53:40;;;;;;;6.05;0.77;;;8.80;94.60;;;;;;5075014;28;20181;-66
2021/05/26 00:56:06;;;;;;;2.72;0.95;;;8.80;94.60;;;;;;5075830;28;20043;-66
2021/05/26 00:58:32;;;;;;;2.60;0.90;;;8.80;94.70;;;;;;5057019;28;20032;-66
2021/05/26 01:00:58;;;;;;;5.43;1.10;;;8.80;94.70;;;;;;5075502;28;20619;-66
2021/05/26 01:03:25;;;;;;;5.32;0.95;;;8.80;94.80;;;;;;5080999;28;20053;-66
2021/05/26 01:05:51;;;;;;;3.22;0.93;;;8.80;94.80;;;;;;5075325;28;20505;-66
2021/05/26 01:08:16;;;;;;;2.67;1.17;;;8.80;94.80;;;;;;5075092;28;20044;-66
2021/05/26 01:10:42;;;;;;;5.68;1.00;;;8.80;94.90;;;;;;5074945;28;20657;-66
2021/05/26 01:13:12;;;;;;;3.33;1.20;;;8.80;94.90;;;;;;5076417;28;20042;-66
2021/05/26 01:15:38;;;;;;;3.20;1.17;;;8.90;94.90;;;;;;5074426;28;20076;-66
2021/05/26 01:18:22;;;;;;;2.53;0.98;;;8.90;95.00;;;;;;5077126;28;20607;-66
2021/05/26 01:20:48;;;;;;;2.80;1.20;;;8.90;94.90;;;;;;5075230;28;20068;-66
2021/05/26 01:23:17;;;;;;;1.90;1.00;;;8.90;94.90;;;;;;5076094;28;20501;-66
2021/05/26 01:25:51;;;;;;;2.85;1.25;;;8.90;94.90;;;;;;5077261;28;20114;-66
2021/05/26 01:28:16;;;;;;;2.88;1.00;;;8.90;94.90;;;;;;5075402;28;20029;-66
2021/05/26 01:30:43;;;;;;;3.25;1.15;;;8.90;95.00;;;;;;5074665;28;20080;-66
2021/05/26 01:33:09;;;;;;;2.90;1.10;;;8.80;95.00;;;;;;5078232;28;20041;-66
2021/05/26 01:35:38;;;;;;;3.35;1.33;;;8.80;95.00;;;;;;5074988;28;20027;-66
2021/05/26 01:38:04;;;;;;;5.35;1.77;;;8.90;95.10;;;;;;5079905;28;20036;-66
2021/05/26 01:40:29;;;;;;;2.90;1.27;;;8.90;95.10;;;;;;5078435;28;20081;-66
2021/05/26 01:42:55;;;;;;;5.28;1.67;;;8.90;95.10;;;;;;5073975;28;20494;-66
2021/05/26 01:45:20;;;;;;;2.80;1.60;;;8.90;95.00;;;;;;5074983;28;20048;-66
2021/05/26 01:47:50;;;;;;;5.22;1.90;;;8.90;95.10;;;;;;5077228;28;20466;-66
2021/05/26 01:50:20;;;;;;;5.35;1.65;;;8.90;95.10;;;;;;5075366;28;20436;-66
2021/05/26 01:52:52;;;;;;;8.95;1.98;;;8.90;95.20;;;;;;5078462;28;20040;-66
2021/05/26 01:55:18;;;;;;;5.33;1.80;;;8.90;95.20;;;;;;5076468;28;20190;-67
2021/05/26 01:57:44;;;;;;;10.75;5.85;;;8.90;95.20;;;;;;5079321;28;20823;-66
2021/05/26 02:00:14;;;;;;;10.98;6.03;;;8.90;95.30;;;;;;5075807;28;20035;-66
2021/05/26 02:02:40;;;;;;;13.88;6.22;;;9.00;95.30;;;;;;5058269;28;20032;-66
2021/05/26 02:05:08;;;;;;;7.93;5.20;;;9.00;95.30;;;;;;5074798;28;20035;-67
2021/05/26 02:07:34;;;;;;;10.20;4.63;;;9.10;95.20;;;;;;5076589;28;20035;-66
2021/05/26 02:09:59;;;;;;;9.05;4.05;;;9.20;95.20;;;;;;5074014;28;20037;-66
2021/05/26 02:12:32;;;;;;;8.27;4.10;;;9.20;95.20;;;;;;5073071;28;20111;-66
2021/05/26 02:14:58;;;;;;;9.30;4.43;;;9.20;95.10;;;;;;5073540;28;20024;-66
2021/05/26 02:17:23;;;;;;;6.93;4.43;;;9.20;95.10;;;;;;5074014;28;20751;-66
2021/05/26 02:19:49;;;;;;;12.43;5.13;;;9.20;95.10;;;;;;5076472;28;20089;-66
2021/05/26 02:22:16;;;;;;;7.10;4.50;;;9.20;95.10;;;;;;5076194;28;20631;-66
2021/05/26 02:24:43;;;;;;;7.47;4.70;;;9.20;95.10;;;;;;5074315;28;20512;-66
2021/05/26 02:27:09;;;;;;;11.75;4.32;;;9.20;95.10;;;;;;5074520;28;20085;-66
2021/05/26 02:29:35;;;;;;;9.05;4.95;;;9.10;95.10;;;;;;5074726;28;20058;-67
2021/05/26 02:32:01;;;;;;;9.65;6.28;;;9.10;95.10;;;;;;5075488;28;20036;-66
2021/05/26 02:34:27;;;;;;;7.40;5.60;;;9.10;95.20;;;;;;5074851;28;20035;-66
2021/05/26 02:36:53;;;;;;;7.93;5.43;;;9.10;95.20;;;;;;5075155;28;20059;-66
2021/05/26 02:39:18;;;;;;;10.70;5.75;;;9.20;95.30;;;;;;5074245;28;20059;-66
2021/05/26 02:41:44;;;;;;;9.95;5.63;;;9.20;95.30;;;;;;5073300;28;20051;-66
2021/05/26 02:44:11;;;;;;;13.60;6.78;;;9.20;95.30;;;;;;5075766;28;20032;-66
2021/05/26 02:46:37;;;;;;;11.63;7.38;;;9.20;95.30;;;;;;5074514;28;20073;-66
2021/05/26 02:49:04;;;;;;;18.73;7.90;;;9.30;95.40;;;;;;5074119;28;20417;-66
2021/05/26 02:51:31;;;;;;;26.45;8.75;;;9.30;95.40;;;;;;5073993;28;20024;-66
2021/05/26 02:53:56;;;;;;;16.95;7.63;;;9.40;95.40;;;;;;5074349;28;20036;-67
2021/05/26 02:56:22;;;;;;;25.10;9.60;;;9.40;95.40;;;;;;5073927;28;20389;-67
2021/05/26 02:58:48;;;;;;;19.73;9.43;;;9.50;95.40;;;;;;5072818;28;20032;-66
2021/05/26 03:01:13;;;;;;;22.02;8.88;;;9.50;95.40;;;;;;5079693;28;20042;-66
2021/05/26 03:03:39;;;;;;;22.48;9.32;;;9.50;95.40;;;;;;5074398;28;20549;-66
2021/05/26 03:06:04;;;;;;;21.20;9.23;;;9.50;95.40;;;;;;5073544;28;20020;-66
2021/05/26 03:08:30;;;;;;;25.73;10.25;;;9.50;95.40;;;;;;5073593;28;20136;-66
2021/05/26 03:10:57;;;;;;;24.70;10.93;;;9.60;95.40;;;;;;5057107;28;20043;-67
2021/05/26 03:13:30;;;;;;;21.13;10.50;;;9.60;95.40;;;;;;5099973;27;21198;-68
2021/05/26 03:15:56;;;;;;;28.67;11.00;;;9.50;95.40;;;;;;5081314;28;20169;-68
2021/05/26 03:18:22;;;;;;;18.38;10.20;;;9.60;95.50;;;;;;5099139;28;20023;-68
2021/05/26 03:20:49;;;;;;;20.48;11.13;;;9.50;95.40;;;;;;5097781;28;20069;-68
2021/05/26 03:23:15;;;;;;;22.38;11.65;;;9.60;95.50;;;;;;5097316;28;20035;-68
2021/05/26 03:25:41;;;;;;;31.15;13.23;;;9.60;95.50;;;;;;5096704;28;20107;-68
2021/05/26 03:28:07;;;;;;;27.42;12.30;;;9.60;95.50;;;;;;5097332;28;20035;-68
2021/05/26 03:30:34;;;;;;;21.77;12.02;;;9.50;95.40;;;;;;5096764;28;20055;-68
2021/05/26 03:33:11;;;;;;;23.13;13.00;;;9.60;95.50;;;;;;5097917;28;20582;-68
2021/05/26 03:35:41;;;;;;;20.80;12.57;;;9.60;95.50;;;;;;5097246;28;20387;-68
2021/05/26 03:38:07;;;;;;;25.88;12.63;;;9.60;95.40;;;;;;5099079;28;20072;-68
2021/05/26 03:40:36;;;;;;;24.58;11.77;;;9.60;95.40;;;;;;5099232;28;20111;-68
2021/05/26 03:43:02;;;;;;;22.50;10.57;;;9.60;95.70;;;;;;5100061;28;20051;-68
2021/05/26 03:45:30;;;;;;;23.58;10.95;;;9.60;95.40;;;;;;5096214;28;20731;-68
2021/05/26 03:47:57;;;;;;;19.65;9.05;;;9.60;95.40;;;;;;5098794;28;20063;-68
2021/05/26 03:50:23;;;;;;;23.63;8.35;;;9.60;95.40;;;;;;5096419;28;20032;-68
2021/05/26 03:52:49;;;;;;;15.40;7.60;;;9.60;95.30;;;;;;5095498;28;20046;-68
2021/05/26 03:55:17;;;;;;;14.38;6.88;;;9.60;95.30;;;;;;5095712;28;20051;-68
2021/05/26 03:57:43;;;;;;;22.95;7.03;;;9.60;95.20;;;;;;5097112;28;20087;-67
2021/05/26 04:00:11;;;;;;;18.55;6.45;;;9.60;95.20;;;;;;5079880;28;20032;-69
2021/05/26 04:02:37;;;;;;;17.48;6.13;;;9.60;95.20;;;;;;5096758;28;20052;-69
2021/05/26 04:05:04;;;;;;;12.40;5.22;;;9.60;95.10;;;;;;5097650;28;20065;-69
2021/05/26 04:07:30;;;;;;;12.35;5.20;;;9.50;95.10;;;;;;5095845;28;20114;-69
2021/05/26 04:09:55;;;;;;;14.45;5.00;;;9.50;95.10;;;;;;5099569;28;20595;-69
2021/05/26 04:12:24;;;;;;;15.85;5.50;;;9.40;95.00;;;;;;5096582;28;20039;-69
2021/05/26 04:14:50;;;;;;;10.93;3.75;;;9.40;95.10;;;;;;5095314;28;20093;-69
2021/05/26 04:17:15;;;;;;;18.65;4.88;;;9.40;95.20;;;;;;5096053;28;20032;-69
2021/05/26 04:19:41;;;;;;;14.75;4.68;;;9.40;95.20;;;;;;5095158;28;20101;-68
2021/05/26 04:22:06;;;;;;;16.90;4.72;;;9.30;95.20;;;;;;5103579;28;20032;-68
2021/05/26 04:24:32;;;;;;;14.25;4.57;;;9.40;95.20;;;;;;5092833;28;20112;-68
2021/05/26 04:26:57;;;;;;;19.02;4.82;;;9.40;95.20;;;;;;5091908;28;20032;-68
2021/05/26 04:29:23;;;;;;;13.80;5.28;;;9.40;95.20;;;;;;5092149;28;20113;-68
2021/05/26 04:31:49;;;;;;;12.98;4.38;;;9.40;95.20;;;;;;5081525;28;20020;-68
2021/05/26 04:34:15;;;;;;;11.60;4.38;;;9.40;95.20;;;;;;5077427;28;20074;-68
2021/05/26 04:36:40;;;;;;;16.02;5.00;;;9.50;95.10;;;;;;5090254;28;20506;-68
2021/05/26 04:39:06;;;;;;;13.15;4.55;;;9.50;95.10;;;;;;5105478;28;20127;-68
2021/05/26 04:41:32;;;;;;;15.75;4.75;;;9.50;95.00;;;;;;5094347;28;20051;-68
2021/05/26 04:43:57;;;;;;;11.57;4.75;;;9.50;95.00;;;;;;5092400;28;20386;-68
2021/05/26 04:46:23;;;;;;;10.30;4.53;;;9.60;95.00;;;;;;5093592;28;20490;-68
2021/05/26 04:48:49;;;;;;;17.25;6.63;;;9.60;95.00;;;;;;5092807;28;20032;-68
2021/05/26 04:51:14;;;;;;;11.68;4.45;;;9.60;94.90;;;;;;5089685;28;20505;-68
2021/05/26 04:53:40;;;;;;;9.75;4.35;;;9.60;94.90;;;;;;5089197;28;20035;-68
2021/05/26 04:56:05;;;;;;;9.18;3.75;;;9.60;94.80;;;;;;5089853;28;20038;-68
2021/05/26 04:58:31;;;;;;;11.07;4.55;;;9.60;94.80;;;;;;5093776;28;20482;-68
2021/05/26 05:00:56;;;;;;;10.70;4.25;;;9.60;94.80;;;;;;5094758;28;20016;-68
2021/05/26 05:03:22;;;;;;;11.00;4.60;;;9.60;94.80;;;;;;5094019;28;20508;-68
2021/05/26 05:05:47;;;;;;;10.07;3.75;;;9.70;94.90;;;;;;5094122;28;20032;-68
2021/05/26 05:08:13;;;;;;;10.63;3.78;;;9.70;94.90;;;;;;5093597;28;20085;-68
2021/05/26 05:10:38;;;;;;;12.82;3.92;;;9.70;94.80;;;;;;5093399;28;20116;-69
2021/05/26 05:13:04;;;;;;;13.73;4.55;;;9.70;94.80;;;;;;5092977;28;20036;-68
2021/05/26 05:15:29;;;;;;;15.57;4.03;;;9.80;94.80;;;;;;5094863;28;20474;-68
2021/05/26 05:17:55;;;;;;;10.60;4.28;;;9.90;94.80;;;;;;5093906;28;20035;-68
2021/05/26 05:20:21;;;;;;;11.85;4.20;;;9.90;94.70;;;;;;5094574;28;20474;-68
2021/05/26 05:22:48;;;;;;;12.45;4.45;;;10.00;94.70;;;;;;5090534;28;20028;-68
2021/05/26 05:25:14;;;;;;;9.48;4.32;;;10.00;94.50;;;;;;5092616;28;20093;-68
2021/05/26 05:27:39;;;;;;;13.25;5.45;;;10.10;94.80;;;;;;5091094;28;20028;-68
2021/05/26 05:30:06;;;;;;;16.42;6.32;;;10.10;94.50;;;;;;5094261;28;20050;-67
2021/05/26 05:32:32;;;;;;;13.60;5.60;;;10.10;94.50;;;;;;5092170;28;20039;-68
2021/05/26 05:34:58;;;;;;;11.38;6.07;;;10.20;94.50;;;;;;5093794;28;20043;-68
2021/05/26 05:37:24;;;;;;;10.52;5.28;;;10.20;94.40;;;;;;5090937;28;20024;-67
2021/05/26 05:39:50;;;;;;;15.05;5.65;;;10.20;94.30;;;;;;5084476;28;20028;-67
2021/05/26 05:42:16;;;;;;;13.65;5.78;;;10.20;94.30;;;;;;5078450;28;20040;-66
2021/05/26 05:44:41;;;;;;;10.32;5.38;;;10.20;94.20;;;;;;5087280;28;20031;-66
2021/05/26 05:47:07;;;;;;;14.18;5.85;;;10.20;94.20;;;;;;5099745;28;20062;-67
2021/05/26 05:49:32;;;;;;;12.90;5.95;;;10.20;94.20;;;;;;5094751;28;20370;-66
2021/05/26 05:51:58;;;;;;;10.85;5.70;;;10.20;94.20;;;;;;5091485;28;20036;-67
2021/05/26 05:54:23;;;;;;;14.77;6.22;;;10.20;94.20;;;;;;5081768;28;20028;-67
2021/05/26 05:56:49;;;;;;;13.68;5.97;;;10.20;94.20;;;;;;5092307;28;20020;-69
2021/05/26 05:59:14;;;;;;;9.07;5.35;;;10.20;94.10;;;;;;5091206;28;20031;-68
2021/05/26 06:01:40;;;;;;;11.73;6.10;;;10.20;94.10;;;;;;5092006;28;20119;-68
2021/05/26 06:04:05;;;;;;;15.35;6.80;;;10.30;94.10;;;;;;5093657;28;20032;-68
2021/05/26 06:06:31;;;;;;;11.77;6.82;;;10.30;94.10;;;;;;5093386;28;20377;-68
2021/05/26 06:08:57;;;;;;;14.90;7.32;;;10.30;94.00;;;;;;5093449;28;20032;-69
2021/05/26 06:11:22;;;;;;;17.60;6.88;;;10.30;93.90;;;;;;5092131;28;20060;-67
2021/05/26 06:13:49;;;;;;;13.32;5.80;;;10.30;93.90;;;;;;5092576;28;20085;-68
2021/05/26 06:16:16;;;;;;;11.80;5.95;;;10.20;93.80;;;;;;5092127;28;20024;-68
2021/05/26 06:18:41;;;;;;;11.18;6.18;;;10.20;93.90;;;;;;5078342;28;20375;-69
2021/05/26 06:21:07;;;;;;;13.90;6.35;;;10.30;93.90;;;;;;5092454;28;20016;-69
2021/05/26 06:23:35;;;;;;;14.50;6.18;;;10.30;94.00;;;;;;5090976;28;20036;-70
2021/05/26 06:26:02;;;;;;;14.73;7.22;;;10.50;94.00;;;;;;5084008;28;20044;-70
2021/05/26 06:28:28;;;;;;;12.23;6.97;;;10.50;93.70;;;;;;5077763;28;20023;-69
2021/05/26 06:30:56;;;;;;;12.15;6.35;;;10.70;93.80;;;;;;5092765;28;20474;-69
2021/05/26 06:33:22;;;;;;;12.23;6.80;;;10.80;93.70;;;;;;5092182;28;20115;-69
2021/05/26 06:35:47;;;;;;;12.00;7.13;;;10.90;93.60;;;;;;5093560;28;20047;-68
2021/05/26 06:38:13;;;;;;;14.70;8.27;;;11.00;93.50;;;;;;5093898;28;20175;-67
2021/05/26 06:40:38;;;;;;;16.83;8.02;;;11.10;93.30;;;;;;5093039;28;20477;-67
2021/05/26 06:43:04;;;;;;;12.63;7.82;;;11.20;93.50;;;;;;5093334;28;20032;-67
2021/05/26 06:45:29;;;;;;;12.02;7.95;;;11.30;93.30;;;;;;5092897;28;20513;-67
2021/05/26 06:47:55;;;;;;;12.45;8.52;;;11.40;93.30;;;;;;5092284;28;20043;-67
2021/05/26 06:50:20;;;;;;;13.93;8.52;;;11.60;93.10;;;;;;5091107;28;20035;-68
2021/05/26 06:52:46;;;;;;;15.48;9.35;;;11.80;92.70;;;;;;5084886;28;20036;-69
2021/05/26 06:55:11;;;;;;;11.48;7.32;;;11.90;92.50;;;;;;5090616;28;20028;-68
2021/05/26 06:57:37;;;;;;;12.70;8.23;;;12.10;92.50;;;;;;5092671;28;20115;-68
2021/05/26 07:00:05;;;;;;;11.90;8.25;;;12.20;92.20;;;;;;5091052;28;20022;-68
2021/05/26 07:02:31;;;;;;;13.65;8.65;;;12.40;91.90;;;;;;5089334;28;20422;-68
2021/05/26 07:04:56;;;;;;;13.75;8.45;;;12.50;92.10;;;;;;5093148;28;20055;-68
2021/05/26 07:07:22;;;;;;;11.95;8.32;;;12.50;91.70;;;;;;5087451;28;20029;-68
2021/05/26 07:09:47;;;;;;;11.45;7.65;;;12.60;91.40;;;;;;5092803;28;20470;-69
2021/05/26 07:12:13;;;;;;;14.27;8.25;;;12.70;91.40;;;;;;5089332;28;20040;-69
2021/05/26 07:14:39;;;;;;;13.27;7.47;;;12.70;91.00;;;;;;5092793;28;20420;-68
2021/05/26 07:17:05;;;;;;;13.02;7.57;;;12.70;90.90;;;;;;5091194;28;20389;-68
2021/05/26 07:19:30;;;;;;;11.00;7.18;;;12.70;90.70;;;;;;5093398;28;20024;-68
2021/05/26 07:21:56;;;;;;;12.07;8.05;;;12.60;90.50;;;;;;5092420;28;20024;-68
2021/05/26 07:24:21;;;;;;;13.80;7.20;;;12.60;90.30;;;;;;5090079;28;20029;-68
2021/05/26 07:26:47;;;;;;;8.23;6.45;;;12.60;90.30;;;;;;5092581;28;20032;-67
2021/05/26 07:29:13;;;;;;;10.95;7.40;;;12.50;90.00;;;;;;5092530;28;20489;-68
2021/05/26 07:31:41;;;;;;;11.55;6.57;;;12.60;90.20;;;;;;5092801;28;20034;-68
2021/05/26 07:34:06;;;;;;;9.05;5.95;;;12.60;90.30;;;;;;5090919;28;20381;-68
2021/05/26 07:36:32;;;;;;;11.48;6.93;;;12.80;90.20;;;;;;5092250;28;20024;-68
2021/05/26 07:38:58;;;;;;;12.32;7.18;;;13.00;90.10;;;;;;5091698;28;20036;-68
2021/05/26 07:41:24;;;;;;;10.88;6.47;;;13.10;90.00;;;;;;5092764;28;20084;-67
2021/05/26 07:43:49;;;;;;;14.55;6.57;;;13.30;89.50;;;;;;5084469;28;20016;-68
2021/05/26 07:46:15;;;;;;;10.55;5.82;;;13.30;88.10;;;;;;5089939;28;20028;-68
2021/05/26 07:48:40;;;;;;;8.50;6.53;;;13.30;88.00;;;;;;5091864;28;20016;-68
2021/05/26 07:51:06;;;;;;;13.98;7.72;;;13.30;87.80;;;;;;5092504;28;20020;-68
2021/05/26 07:53:32;;;;;;;11.90;6.57;;;13.40;87.90;;;;;;5091214;28;20034;-69
2021/05/26 07:55:58;;;;;;;10.10;6.85;;;13.40;87.50;;;;;;5091555;28;20394;-69
2021/05/26 07:58:24;;;;;;;10.55;7.05;;;13.40;87.20;;;;;;5092567;28;20110;-69
2021/05/26 08:00:50;;;;;;;11.52;8.32;;;13.30;86.70;;;;;;5096373;28;20095;-69
2021/05/26 08:03:16;;;;;;;9.70;7.00;;;13.30;86.80;;;;;;5093695;28;20020;-68
2021/05/26 08:05:41;;;;;;;12.50;7.53;;;13.30;87.00;;;;;;5096124;28;20504;-69
2021/05/26 08:08:07;;;;;;;12.32;7.22;;;13.30;86.90;;;;;;5094220;28;20058;-68
2021/05/26 08:10:32;;;;;;;10.45;7.97;;;13.30;86.50;;;;;;5094893;28;20399;-69
2021/05/26 08:12:58;;;;;;;13.52;9.18;;;13.30;87.00;;;;;;5095329;28;20040;-69
2021/05/26 08:15:23;;;;;;;13.80;8.25;;;13.40;87.20;;;;;;5092880;28;20044;-69
2021/05/26 08:17:49;;;;;;;10.75;7.63;;;13.50;86.90;;;;;;5096008;28;20047;-68
2021/05/26 08:20:15;;;;;;;9.93;7.70;;;13.60;86.70;;;;;;5095558;28;20069;-69
2021/05/26 08:22:40;;;;;;;12.00;8.00;;;13.60;85.60;;;;;;5094779;28;20484;-68
2021/05/26 08:25:07;;;;;;;11.60;7.82;;;13.60;85.80;;;;;;5093004;28;20052;-68
2021/05/26 08:27:32;;;;;;;13.45;8.68;;;13.60;86.00;;;;;;5095271;28;20032;-68
2021/05/26 08:30:00;;;;;;;11.18;7.95;;;13.60;85.30;;;;;;5095145;28;20031;-68
2021/05/26 08:32:26;;;;;;;11.18;7.28;;;13.60;85.60;;;;;;5091364;28;20482;-68
2021/05/26 08:34:55;;;;;;;11.80;7.47;;;13.60;85.40;;;;;;5095575;28;20043;-68
2021/05/26 08:37:20;;;;;;;10.45;7.07;;;13.70;85.40;;;;;;5091798;28;20058;-68
2021/05/26 08:39:46;;;;;;;14.88;8.10;;;13.70;85.00;;;;;;5092163;28;20470;-67
2021/05/26 08:42:11;;;;;;;9.98;6.95;;;13.70;84.40;;;;;;5093276;28;20043;-67
2021/05/26 08:44:37;;;;;;;11.10;6.93;;;13.70;84.30;;;;;;5081188;28;20494;-67
2021/05/26 08:47:03;;;;;;;10.73;6.93;;;13.80;84.40;;;;;;5089305;28;20111;-67
2021/05/26 08:49:31;;;;;;;10.90;6.75;;;13.90;83.40;;;;;;5092299;28;20036;-68
2021/05/26 08:52:01;;;;;;;10.85;5.85;;;14.00;82.80;;;;;;5095060;28;20055;-68
2021/05/26 08:54:27;;;;;;;8.82;6.05;;;14.20;82.90;;;;;;5075388;28;20031;-68
2021/05/26 08:56:53;;;;;;;13.73;7.60;;;14.30;82.80;;;;;;5075231;28;20032;-68
2021/05/26 08:59:19;;;;;;;13.00;7.53;;;14.30;82.90;;;;;;5089328;28;20474;-68
2021/05/26 09:01:47;;;;;;;10.35;7.13;;;14.40;82.70;;;;;;5095281;28;20020;-68
2021/05/26 09:04:29;;;;;;;15.93;6.38;;;14.50;82.80;;;;;;5095136;28;20049;-68
2021/05/26 09:07:07;;;;;;;11.90;6.60;;;14.60;81.60;;;;;;5094138;28;20533;-68
2021/05/26 09:10:00;;;;;;;12.95;6.68;;;14.70;81.00;;;;;;5095284;28;20024;-68
2021/05/26 09:12:29;;;;;;;;;;;14.60;81.00;;;;;;5094888;28;20386;-67
2021/05/26 09:15:00;;;;;;;14.40;7.28;;;14.60;80.90;;;;;;5094101;28;19908;-68
2021/05/26 09:17:28;;;;;;;9.93;7.05;;;14.40;80.30;;;;;;5095112;28;20509;-68
2021/05/26 09:20:23;;;;;;;14.32;7.43;;;14.30;80.70;;;;;;5095091;28;20098;-68
2021/05/26 09:23:07;;;;;;;14.65;7.75;;;14.10;81.10;;;;;;5093913;28;20017;-67
2021/05/26 09:25:35;;;;;;;9.43;7.00;;;14.10;82.00;;;;;;5093335;28;20080;-68
2021/05/26 09:28:34;;;;;;;13.75;7.07;;;14.40;82.50;;;;;;5094567;28;20067;-68
2021/05/26 09:31:04;;;;;;;10.40;7.30;;;14.80;81.30;;;;;;5087569;28;20118;-68
2021/05/26 09:33:37;;;;;;;11.85;7.10;;;15.00;79.90;;;;;;5091073;28;20028;-68
2021/05/26 09:36:11;;;;;;;11.10;7.40;;;15.00;78.40;;;;;;5089613;28;20024;-68
2021/05/26 09:38:52;;;;;;;7.90;6.22;;;14.90;78.40;;;;;;5089019;28;20114;-68
2021/05/26 09:41:22;;;;;;;7.03;6.07;;;14.80;78.10;;;;;;5089413;28;20086;-69
2021/05/26 09:43:51;;;;;;;8.65;6.53;;;14.70;78.20;;;;;;5089886;28;20027;-69
2021/05/26 09:46:32;;;;;;;9.32;7.03;;;14.60;78.80;;;;;;5106280;28;20412;-69
2021/05/26 09:49:11;;;;;;;11.85;8.38;;;14.60;79.60;;;;;;5112988;28;20110;-68
2021/05/26 09:51:42;;;;;;;10.43;6.72;;;14.60;79.20;;;;;;5109181;28;20108;-68
2021/05/26 09:54:15;;;;;;;10.68;6.43;;;14.70;79.20;;;;;;5109377;28;20052;-68
2021/05/26 09:56:41;;;;;;;;;;;14.70;79.20;;;;;;5092210;28;20424;-68
2021/05/26 09:59:07;;;;;;;10.52;7.20;;;14.70;79.00;;;;;;5105384;28;20341;-67
2021/05/26 10:01:34;;;;;;;11.57;6.95;;;14.60;79.00;;;;;;5098203;28;20390;-67
2021/05/26 10:04:01;;;;;;;9.57;7.25;;;14.70;79.10;;;;;;5098781;28;20078;-66
2021/05/26 10:06:28;;;;;;;11.43;8.18;;;14.70;78.90;;;;;;5095730;28;20019;-67
2021/05/26 10:08:58;;;;;;;11.20;6.60;;;14.80;78.50;;;;;;5112163;28;20028;-68
2021/05/26 10:11:32;;;;;;;7.55;5.43;;;15.00;77.30;;;;;;5100526;28;20044;-67
2021/05/26 10:14:01;;;;;;;8.93;4.85;;;15.20;76.60;;;;;;5094191;28;20020;-67
2021/05/26 10:16:32;;;;;;;9.27;4.97;;;15.20;73.40;;;;;;5089726;28;20081;-69
2021/05/26 10:19:02;;;;;;;7.68;4.78;;;15.20;73.80;;;;;;5093721;28;20024;-66
2021/05/26 10:21:29;;;;;;;8.65;5.30;;;14.90;73.70;;;;;;5093272;28;20016;-66
2021/05/26 10:23:55;;;;;;;10.80;4.57;;;14.90;74.90;;;;;;5093173;28;20043;-66
2021/05/26 10:26:50;;;;;;;7.85;3.80;;;15.00;75.50;;;;;;5093753;28;20477;-68
2021/05/26 10:29:33;;;;;;;10.73;4.47;;;15.40;76.10;;;;;;5093836;28;20111;-67
2021/05/26 10:31:59;;;;;;;6.07;3.75;;;15.90;75.30;;;;;;5089900;28;20077;-68
2021/05/26 10:34:47;;;;;;;5.45;4.10;;;16.10;73.50;;;;;;5087458;28;20032;-68
2021/05/26 10:37:14;;;;;;;9.25;5.00;;;16.10;72.20;;;;;;5073232;28;20051;-66
2021/05/26 10:39:40;;;;;;;7.68;3.85;;;16.00;71.70;;;;;;5073213;28;20032;-66
2021/05/26 10:42:23;;;;;;;5.75;3.63;;;15.80;72.60;;;;;;5086697;28;20032;-66
2021/05/26 10:45:06;;;;;;;5.05;2.58;;;15.70;72.50;;;;;;5092253;28;20473;-66
2021/05/26 10:47:42;;;;;;;5.57;2.58;;;15.60;72.00;;;;;;5088220;28;20551;-67
2021/05/26 10:50:15;;;;;;;7.68;1.40;;;15.70;71.90;;;;;;5090759;28;20028;-67
2021/05/26 10:52:56;;;;;;;2.92;0.57;;;15.20;69.60;;;;;;5084909;28;20067;-67
2021/05/26 10:55:37;;;;;;;3.53;0.60;;;14.40;71.80;;;;;;5091153;28;20370;-68
2021/05/26 10:58:24;;;;;;;2.60;0.65;;;13.80;74.40;;;;;;5092585;28;20423;-69
2021/05/26 11:00:56;;;;;;;3.40;0.63;;;12.90;77.30;;;;;;5092855;28;20019;-69
2021/05/26 11:03:24;;;;;;;2.65;0.57;;;12.30;81.00;;;;;;5099824;28;20110;-69
2021/05/26 11:05:51;;;;;;;1.50;0.82;;;12.00;82.60;;;;;;5092969;28;20382;-69
2021/05/26 11:08:55;;;;;;;1.83;0.75;;;12.00;84.00;;;;;;5093171;28;20107;-68
2021/05/26 11:11:34;;;;;;;5.30;0.90;;;12.20;85.00;;;;;;5030644;28;20546;-69
2021/05/26 11:14:00;;;;;;;4.35;0.82;;;12.30;85.10;;;;;;5030834;28;20388;-69
2021/05/26 11:16:36;;;;;;;2.53;0.90;;;12.40;85.70;;;;;;5062355;28;20043;-69
2021/05/26 11:19:10;;;;;;;3.97;0.90;;;12.40;86.40;;;;;;5093151;28;20028;-68
2021/05/26 11:21:35;;;;;;;3.22;0.80;;;12.50;86.60;;;;;;5093406;28;20028;-68
2021/05/26 11:24:01;;;;;;;1.20;0.50;;;12.60;86.60;;;;;;5092948;28;20016;-70
2021/05/26 11:26:37;;;;;;;2.65;0.40;;;12.60;85.60;;;;;;5091921;28;20047;-68
2021/05/26 11:29:08;;;;;;;1.00;0.30;;;12.60;84.80;;;;;;5091796;28;20131;-69
2021/05/26 11:31:35;;;;;;;3.55;0.47;;;12.60;84.70;;;;;;5078452;28;20107;-67
2021/05/26 11:34:01;;;;;;;3.78;0.52;;;12.70;85.20;;;;;;5078953;28;20022;-68
2021/05/26 11:36:43;;;;;;;3.95;0.77;;;12.70;85.80;;;;;;5096013;28;20020;-69
2021/05/26 11:39:26;;;;;;;4.38;0.77;;;12.90;85.60;;;;;;5088256;28;20028;-69
2021/05/26 11:41:52;;;;;;;4.53;0.90;;;13.00;85.50;;;;;;5096588;28;20071;-69
2021/05/26 11:44:21;;;;;;;2.35;0.65;;;13.30;86.00;;;;;;5103246;28;20436;-68
2021/05/26 11:46:46;;;;;;;4.65;1.10;;;13.80;85.50;;;;;;5095564;28;20161;-68
2021/05/26 11:49:13;;;;;;;2.50;0.90;;;14.00;84.10;;;;;;5095288;28;20544;-67
2021/05/26 11:51:39;;;;;;;4.85;1.08;;;14.10;83.30;;;;;;5092018;28;20115;-68
2021/05/26 11:54:06;;;;;;;4.05;1.05;;;14.10;83.20;;;;;;5099584;28;20032;-71
2021/05/26 11:56:32;;;;;;;1.42;0.40;;;13.70;81.70;;;;;;5094617;28;20027;-69
2021/05/26 11:58:58;;;;;;;2.00;0.40;;;13.00;82.60;;;;;;5099698;28;20078;-69
2021/05/26 12:01:31;;;;;;;2.97;0.40;;;12.40;84.50;;;;;;5095903;28;20024;-68
2021/05/26 12:04:01;;;;;;;4.13;1.00;;;12.00;86.00;;;;;;5116962;28;20024;-69
2021/05/26 12:06:27;;;;;;;2.58;0.70;;;11.80;87.60;;;;;;5115886;28;20051;-70
2021/05/26 12:08:53;;;;;;;3.58;1.13;;;11.80;88.90;;;;;;5107229;28;20505;-69
2021/05/26 12:11:22;;;;;;;5.30;0.98;;;12.10;89.80;;;;;;5091599;28;20032;-69
2021/05/26 12:13:49;;;;;;;4.22;0.80;;;12.40;89.80;;;;;;5092165;28;20031;-69
2021/05/26 12:16:20;;;;;;;6.35;1.40;;;12.70;89.70;;;;;;5094547;28;20027;-68
2021/05/26 12:18:58;;;;;;;9.43;2.15;;;13.00;89.20;;;;;;5082647;28;20474;-69
2021/05/26 12:21:30;;;;;;;4.95;1.95;;;13.20;88.80;;;;;;5089892;28;20032;-69
2021/05/26 12:24:04;;;;;;;7.10;2.20;;;13.40;88.60;;;;;;5075965;28;20085;-68
2021/05/26 12:26:36;;;;;;;5.68;2.38;;;13.40;88.00;;;;;;5094654;28;20028;-68
2021/05/26 12:29:10;;;;;;;7.10;2.00;;;13.50;88.50;;;;;;5116484;28;20019;-68
2021/05/26 12:31:40;;;;;;;4.40;1.60;;;13.60;87.90;;;;;;5109381;28;20081;-68
2021/05/26 12:34:17;;;;;;;3.75;1.60;;;13.70;87.50;;;;;;5095318;28;20047;-68
2021/05/26 12:36:51;;;;;;;3.80;1.35;;;13.70;87.50;;;;;;5096287;28;20124;-67
2021/05/26 12:39:17;;;;;;;8.45;2.05;;;13.70;87.20;;;;;;5097376;28;20016;-68
2021/05/26 12:41:47;;;;;;;4.75;1.65;;;13.60;87.40;;;;;;5115692;28;20055;-68
2021/05/26 12:44:13;;;;;;;4.82;2.22;;;13.50;87.30;;;;;;5101390;28;20023;-68
2021/05/26 12:46:44;;;;;;;4.00;1.88;;;13.50;86.30;;;;;;5110708;28;20107;-68
2021/05/26 12:52:09;;;;;;;2.05;1.10;;;13.50;86.10;;;;;;5094703;28;20501;-68